sensor_id;sensor_type;location;lat;lon;timestamp;temperature;humidity
17200;DHT22;8716;52.268;20.968;2023-02-02T00:01:28;3.90;99.90
17200;DHT22;8716;52.268;20.968;2023-02-02T00:03:57;4.00;99.90
17200;DHT22;8716;52.268;20.968;2023-02-02T00:06:29;4.00;99.90
17200;DHT22;8716;52.268;20.968;2023-02-02T00:09:01;4.00;99.90
17200;DHT22;8716;52.268;20.968;2023-02-02T00:11:30;4.00;99.90
17200;DHT22;8716;52.268;20.968;2023-02-02T00:13:58;4.10;99.90
17200;DHT22;8716;52.268;20.968;2023-02-02T00:16:36;4.20;99.90
17200;DHT22;8716;52.268;20.968;2023-02-02T00:19:06;4.20;99.90
17200;DHT22;8716;52.268;20.968;2023-02-02T00:21:39;4.20;99.90
17200;DHT22;8716;52.268;20.968;2023-02-02T00:24:08;4.20;99.90
17200;DHT22;8716;52.268;20.968;2023-02-02T00:26:38;4.30;99.90
17200;DHT22;8716;52.268;20.968;2023-02-02T00:29:14;4.30;99.90
17200;DHT22;8716;52.268;20.968;2023-02-02T00:31:42;4.20;99.90
17200;DHT22;8716;52.268;20.968;2023-02-02T00:34:14;4.20;99.90
17200;DHT22;8716;52.268;20.968;2023-02-02T00:36:44;4.20;99.90
17200;DHT22;8716;52.268;20.968;2023-02-02T00:39:15;4.30;99.90
17200;DHT22;8716;52.268;20.968;2023-02-02T00:41:44;4.30;99.90
17200;DHT22;8716;52.268;20.968;2023-02-02T00:44:12;4.30;99.90
17200;DHT22;8716;52.268;20.968;2023-02-02T00:46:58;4.30;99.90
17200;DHT22;8716;52.268;20.968;2023-02-02T00:49:29;4.30;99.90
17200;DHT22;8716;52.268;20.968;2023-02-02T00:52:02;4.30;99.90
17200;DHT22;8716;52.268;20.968;2023-02-02T00:54:30;4.30;99.90
17200;DHT22;8716;52.268;20.968;2023-02-02T00:56:58;4.30;99.90
17200;DHT22;8716;52.268;20.968;2023-02-02T00:59:26;4.30;99.90
17200;DHT22;8716;52.268;20.968;2023-02-02T01:01:55;4.30;99.90
17200;DHT22;8716;52.268;20.968;2023-02-02T01:04:23;4.30;99.90
17200;DHT22;8716;52.268;20.968;2023-02-02T01:06:52;4.30;99.90
17200;DHT22;8716;52.268;20.968;2023-02-02T01:09:22;4.30;99.90
17200;DHT22;8716;52.268;20.968;2023-02-02T01:11:50;4.30;99.90
17200;DHT22;8716;52.268;20.968;2023-02-02T01:14:18;4.30;99.90
17200;DHT22;8716;52.268;20.968;2023-02-02T01:16:46;4.20;99.90
17200;DHT22;8716;52.268;20.968;2023-02-02T01:19:15;4.10;99.90
17200;DHT22;8716;52.268;20.968;2023-02-02T01:21:44;4.00;99.90
17200;DHT22;8716;52.268;20.968;2023-02-02T01:24:12;3.80;99.90
17200;DHT22;8716;52.268;20.968;2023-02-02T01:26:41;3.70;99.90
17200;DHT22;8716;52.268;20.968;2023-02-02T01:29:10;3.60;99.90
17200;DHT22;8716;52.268;20.968;2023-02-02T01:31:41;3.40;99.90
17200;DHT22;8716;52.268;20.968;2023-02-02T01:34:09;3.30;99.90
17200;DHT22;8716;52.268;20.968;2023-02-02T01:36:38;3.20;99.90
17200;DHT22;8716;52.268;20.968;2023-02-02T01:39:06;3.10;99.90
17200;DHT22;8716;52.268;20.968;2023-02-02T01:41:40;3.10;99.90
17200;DHT22;8716;52.268;20.968;2023-02-02T01:47:14;2.90;99.90
17200;DHT22;8716;52.268;20.968;2023-02-02T01:49:42;2.80;99.90
17200;DHT22;8716;52.268;20.968;2023-02-02T01:52:15;2.80;99.90
17200;DHT22;8716;52.268;20.968;2023-02-02T01:54:47;2.70;99.90
17200;DHT22;8716;52.268;20.968;2023-02-02T01:57:23;2.70;99.90
17200;DHT22;8716;52.268;20.968;2023-02-02T01:59:54;2.70;99.90
17200;DHT22;8716;52.268;20.968;2023-02-02T02:02:24;2.70;99.90
17200;DHT22;8716;52.268;20.968;2023-02-02T02:04:54;2.70;99.90
17200;DHT22;8716;52.268;20.968;2023-02-02T02:07:23;2.70;99.90
17200;DHT22;8716;52.268;20.968;2023-02-02T02:09:51;2.80;99.90
17200;DHT22;8716;52.268;20.968;2023-02-02T02:12:21;2.70;99.90
17200;DHT22;8716;52.268;20.968;2023-02-02T02:14:50;2.80;99.90
17200;DHT22;8716;52.268;20.968;2023-02-02T02:17:55;2.80;99.90
17200;DHT22;8716;52.268;20.968;2023-02-02T02:21:04;2.90;99.90
17200;DHT22;8716;52.268;20.968;2023-02-02T02:24:28;2.90;99.90
17200;DHT22;8716;52.268;20.968;2023-02-02T02:27:36;3.00;99.90
17200;DHT22;8716;52.268;20.968;2023-02-02T02:30:20;3.10;99.90
17200;DHT22;8716;52.268;20.968;2023-02-02T02:32:58;3.10;99.90
17200;DHT22;8716;52.268;20.968;2023-02-02T02:35:33;3.20;99.90
17200;DHT22;8716;52.268;20.968;2023-02-02T02:38:10;3.20;99.90
17200;DHT22;8716;52.268;20.968;2023-02-02T02:40:45;3.20;99.90
17200;DHT22;8716;52.268;20.968;2023-02-02T02:43:19;3.30;99.90
17200;DHT22;8716;52.268;20.968;2023-02-02T02:45:49;3.30;99.90
17200;DHT22;8716;52.268;20.968;2023-02-02T02:48:23;3.40;99.90
17200;DHT22;8716;52.268;20.968;2023-02-02T02:50:51;3.40;99.90
17200;DHT22;8716;52.268;20.968;2023-02-02T02:53:21;3.40;99.90
17200;DHT22;8716;52.268;20.968;2023-02-02T02:55:56;3.40;99.90
17200;DHT22;8716;52.268;20.968;2023-02-02T02:58:35;3.40;99.90
17200;DHT22;8716;52.268;20.968;2023-02-02T03:01:09;3.40;99.90
17200;DHT22;8716;52.268;20.968;2023-02-02T03:03:52;3.40;99.90
17200;DHT22;8716;52.268;20.968;2023-02-02T03:06:31;3.40;99.90
17200;DHT22;8716;52.268;20.968;2023-02-02T03:09:07;3.40;99.90
17200;DHT22;8716;52.268;20.968;2023-02-02T03:11:37;3.40;99.90
17200;DHT22;8716;52.268;20.968;2023-02-02T03:14:06;3.50;99.90
17200;DHT22;8716;52.268;20.968;2023-02-02T03:16:35;3.40;99.90
17200;DHT22;8716;52.268;20.968;2023-02-02T03:19:08;3.50;99.90
17200;DHT22;8716;52.268;20.968;2023-02-02T03:21:39;3.50;99.90
17200;DHT22;8716;52.268;20.968;2023-02-02T03:24:07;3.50;99.90
17200;DHT22;8716;52.268;20.968;2023-02-02T03:26:36;3.50;99.90
17200;DHT22;8716;52.268;20.968;2023-02-02T03:29:05;3.60;99.90
17200;DHT22;8716;52.268;20.968;2023-02-02T03:31:33;3.70;99.90
17200;DHT22;8716;52.268;20.968;2023-02-02T03:34:01;3.60;99.90
17200;DHT22;8716;52.268;20.968;2023-02-02T03:36:31;3.70;99.90
17200;DHT22;8716;52.268;20.968;2023-02-02T03:38:59;3.70;99.90
17200;DHT22;8716;52.268;20.968;2023-02-02T03:41:27;3.80;99.90
17200;DHT22;8716;52.268;20.968;2023-02-02T03:43:55;3.90;99.90
17200;DHT22;8716;52.268;20.968;2023-02-02T03:46:23;3.90;99.90
17200;DHT22;8716;52.268;20.968;2023-02-02T03:48:52;3.90;99.90
17200;DHT22;8716;52.268;20.968;2023-02-02T03:51:20;3.90;99.90
17200;DHT22;8716;52.268;20.968;2023-02-02T03:53:52;3.90;99.90
17200;DHT22;8716;52.268;20.968;2023-02-02T03:56:21;3.90;99.90
17200;DHT22;8716;52.268;20.968;2023-02-02T03:58:51;3.90;99.90
17200;DHT22;8716;52.268;20.968;2023-02-02T04:01:26;4.00;99.90
17200;DHT22;8716;52.268;20.968;2023-02-02T04:03:55;4.00;99.90
17200;DHT22;8716;52.268;20.968;2023-02-02T04:06:24;4.00;99.90
17200;DHT22;8716;52.268;20.968;2023-02-02T04:08:53;4.00;99.90
17200;DHT22;8716;52.268;20.968;2023-02-02T04:11:22;4.10;99.90
17200;DHT22;8716;52.268;20.968;2023-02-02T04:13:50;4.10;99.90
17200;DHT22;8716;52.268;20.968;2023-02-02T04:16:18;4.10;99.90
17200;DHT22;8716;52.268;20.968;2023-02-02T04:18:47;4.10;99.90
17200;DHT22;8716;52.268;20.968;2023-02-02T04:21:15;4.10;99.90
17200;DHT22;8716;52.268;20.968;2023-02-02T04:23:45;4.10;99.90
17200;DHT22;8716;52.268;20.968;2023-02-02T04:26:16;4.10;99.90
17200;DHT22;8716;52.268;20.968;2023-02-02T04:28:45;4.10;99.90
17200;DHT22;8716;52.268;20.968;2023-02-02T04:31:13;4.20;99.90
17200;DHT22;8716;52.268;20.968;2023-02-02T04:33:42;4.20;99.90
17200;DHT22;8716;52.268;20.968;2023-02-02T04:36:10;4.30;99.90
17200;DHT22;8716;52.268;20.968;2023-02-02T04:38:38;4.20;99.90
17200;DHT22;8716;52.268;20.968;2023-02-02T04:41:07;4.20;99.90
17200;DHT22;8716;52.268;20.968;2023-02-02T04:43:37;4.30;99.90
17200;DHT22;8716;52.268;20.968;2023-02-02T04:46:05;4.30;99.90
17200;DHT22;8716;52.268;20.968;2023-02-02T04:48:34;4.30;99.90
17200;DHT22;8716;52.268;20.968;2023-02-02T04:51:04;4.30;99.90
17200;DHT22;8716;52.268;20.968;2023-02-02T04:53:33;4.30;99.90
17200;DHT22;8716;52.268;20.968;2023-02-02T04:56:04;4.30;99.90
17200;DHT22;8716;52.268;20.968;2023-02-02T04:58:33;4.40;99.90
17200;DHT22;8716;52.268;20.968;2023-02-02T05:01:09;4.30;99.90
17200;DHT22;8716;52.268;20.968;2023-02-02T05:03:37;4.30;99.90
17200;DHT22;8716;52.268;20.968;2023-02-02T05:06:06;4.30;99.90
17200;DHT22;8716;52.268;20.968;2023-02-02T05:08:35;4.30;99.90
17200;DHT22;8716;52.268;20.968;2023-02-02T05:11:07;4.40;99.90
17200;DHT22;8716;52.268;20.968;2023-02-02T05:13:38;4.40;99.90
17200;DHT22;8716;52.268;20.968;2023-02-02T05:16:07;4.40;99.90
17200;DHT22;8716;52.268;20.968;2023-02-02T05:18:38;4.30;99.90
17200;DHT22;8716;52.268;20.968;2023-02-02T05:21:06;4.40;99.90
17200;DHT22;8716;52.268;20.968;2023-02-02T05:23:35;4.30;99.90
17200;DHT22;8716;52.268;20.968;2023-02-02T05:26:03;4.40;99.90
17200;DHT22;8716;52.268;20.968;2023-02-02T05:28:31;4.30;99.90
17200;DHT22;8716;52.268;20.968;2023-02-02T05:31:04;4.30;99.90
17200;DHT22;8716;52.268;20.968;2023-02-02T05:33:35;4.30;99.90
17200;DHT22;8716;52.268;20.968;2023-02-02T05:36:04;4.30;99.90
17200;DHT22;8716;52.268;20.968;2023-02-02T05:38:32;4.30;99.90
17200;DHT22;8716;52.268;20.968;2023-02-02T05:41:01;4.30;99.90
17200;DHT22;8716;52.268;20.968;2023-02-02T05:43:31;4.30;99.90
17200;DHT22;8716;52.268;20.968;2023-02-02T05:46:00;4.30;99.90
17200;DHT22;8716;52.268;20.968;2023-02-02T05:48:28;4.30;99.90
17200;DHT22;8716;52.268;20.968;2023-02-02T05:51:01;4.40;99.90
17200;DHT22;8716;52.268;20.968;2023-02-02T05:53:30;4.40;99.90
17200;DHT22;8716;52.268;20.968;2023-02-02T05:55:59;4.40;99.90
17200;DHT22;8716;52.268;20.968;2023-02-02T05:58:27;4.50;99.90
17200;DHT22;8716;52.268;20.968;2023-02-02T06:00:55;4.50;99.90
17200;DHT22;8716;52.268;20.968;2023-02-02T06:03:23;4.50;99.90
17200;DHT22;8716;52.268;20.968;2023-02-02T06:05:52;4.50;99.90
17200;DHT22;8716;52.268;20.968;2023-02-02T06:08:24;4.50;99.90
17200;DHT22;8716;52.268;20.968;2023-02-02T06:10:52;4.40;99.90
17200;DHT22;8716;52.268;20.968;2023-02-02T06:13:21;4.40;99.90
17200;DHT22;8716;52.268;20.968;2023-02-02T06:15:49;4.40;99.90
17200;DHT22;8716;52.268;20.968;2023-02-02T06:18:17;4.40;99.90
17200;DHT22;8716;52.268;20.968;2023-02-02T06:20:45;4.50;99.90
17200;DHT22;8716;52.268;20.968;2023-02-02T06:23:14;4.50;99.90
17200;DHT22;8716;52.268;20.968;2023-02-02T06:25:43;4.50;99.90
17200;DHT22;8716;52.268;20.968;2023-02-02T06:28:11;4.50;99.90
17200;DHT22;8716;52.268;20.968;2023-02-02T06:30:40;4.50;99.90
17200;DHT22;8716;52.268;20.968;2023-02-02T06:33:10;4.50;99.90
17200;DHT22;8716;52.268;20.968;2023-02-02T06:35:38;4.50;99.90
17200;DHT22;8716;52.268;20.968;2023-02-02T06:38:06;4.60;99.90
17200;DHT22;8716;52.268;20.968;2023-02-02T06:40:35;4.60;99.90
17200;DHT22;8716;52.268;20.968;2023-02-02T06:43:04;4.60;99.90
17200;DHT22;8716;52.268;20.968;2023-02-02T06:45:32;4.60;99.90
17200;DHT22;8716;52.268;20.968;2023-02-02T06:48:06;4.60;99.90
17200;DHT22;8716;52.268;20.968;2023-02-02T06:50:39;4.60;99.90
17200;DHT22;8716;52.268;20.968;2023-02-02T06:53:07;4.70;99.90
17200;DHT22;8716;52.268;20.968;2023-02-02T06:55:35;4.60;99.90
17200;DHT22;8716;52.268;20.968;2023-02-02T06:58:05;4.70;99.90
17200;DHT22;8716;52.268;20.968;2023-02-02T07:00:33;4.70;99.90
17200;DHT22;8716;52.268;20.968;2023-02-02T07:03:04;4.70;99.90
17200;DHT22;8716;52.268;20.968;2023-02-02T07:05:32;4.70;99.90
17200;DHT22;8716;52.268;20.968;2023-02-02T07:08:00;4.60;99.90
17200;DHT22;8716;52.268;20.968;2023-02-02T07:10:28;4.60;99.90
17200;DHT22;8716;52.268;20.968;2023-02-02T07:13:18;4.70;99.90
17200;DHT22;8716;52.268;20.968;2023-02-02T07:15:48;4.70;99.90
17200;DHT22;8716;52.268;20.968;2023-02-02T07:18:17;4.60;99.90
17200;DHT22;8716;52.268;20.968;2023-02-02T07:20:48;4.60;99.90
17200;DHT22;8716;52.268;20.968;2023-02-02T07:23:16;4.60;99.90
17200;DHT22;8716;52.268;20.968;2023-02-02T07:25:44;4.60;99.90
17200;DHT22;8716;52.268;20.968;2023-02-02T07:28:12;4.60;99.90
17200;DHT22;8716;52.268;20.968;2023-02-02T07:30:42;4.60;99.90
17200;DHT22;8716;52.268;20.968;2023-02-02T07:33:10;4.60;99.90
17200;DHT22;8716;52.268;20.968;2023-02-02T07:35:38;4.70;99.90
17200;DHT22;8716;52.268;20.968;2023-02-02T07:38:07;4.60;99.90
17200;DHT22;8716;52.268;20.968;2023-02-02T07:40:35;4.60;99.90
17200;DHT22;8716;52.268;20.968;2023-02-02T07:43:03;4.60;99.90
17200;DHT22;8716;52.268;20.968;2023-02-02T07:45:31;4.60;99.90
17200;DHT22;8716;52.268;20.968;2023-02-02T07:48:01;4.60;99.90
17200;DHT22;8716;52.268;20.968;2023-02-02T07:50:30;4.70;99.90
17200;DHT22;8716;52.268;20.968;2023-02-02T07:52:58;4.70;99.90
17200;DHT22;8716;52.268;20.968;2023-02-02T07:55:27;4.70;99.90
17200;DHT22;8716;52.268;20.968;2023-02-02T07:57:56;4.60;99.90
17200;DHT22;8716;52.268;20.968;2023-02-02T08:00:25;4.60;99.90
17200;DHT22;8716;52.268;20.968;2023-02-02T08:02:53;4.70;99.90
17200;DHT22;8716;52.268;20.968;2023-02-02T08:05:23;4.70;99.90
17200;DHT22;8716;52.268;20.968;2023-02-02T08:07:52;4.70;99.90
17200;DHT22;8716;52.268;20.968;2023-02-02T08:10:20;4.60;99.90
17200;DHT22;8716;52.268;20.968;2023-02-02T08:12:49;4.70;99.90
17200;DHT22;8716;52.268;20.968;2023-02-02T08:15:17;4.80;99.90
17200;DHT22;8716;52.268;20.968;2023-02-02T08:17:45;4.80;99.90
17200;DHT22;8716;52.268;20.968;2023-02-02T08:20:15;4.80;99.90
17200;DHT22;8716;52.268;20.968;2023-02-02T08:22:45;4.80;99.90
17200;DHT22;8716;52.268;20.968;2023-02-02T08:25:13;4.80;99.90
17200;DHT22;8716;52.268;20.968;2023-02-02T08:27:41;4.80;99.90
17200;DHT22;8716;52.268;20.968;2023-02-02T08:30:11;4.80;99.90
17200;DHT22;8716;52.268;20.968;2023-02-02T08:32:39;4.70;99.90
17200;DHT22;8716;52.268;20.968;2023-02-02T08:35:08;4.70;99.90
17200;DHT22;8716;52.268;20.968;2023-02-02T08:37:36;4.70;99.90
17200;DHT22;8716;52.268;20.968;2023-02-02T08:40:07;4.70;99.90
17200;DHT22;8716;52.268;20.968;2023-02-02T08:42:38;4.70;99.90
17200;DHT22;8716;52.268;20.968;2023-02-02T08:45:07;4.70;99.90
17200;DHT22;8716;52.268;20.968;2023-02-02T08:47:55;4.70;99.90
17200;DHT22;8716;52.268;20.968;2023-02-02T08:50:37;4.70;99.90
17200;DHT22;8716;52.268;20.968;2023-02-02T08:53:06;4.70;99.90
17200;DHT22;8716;52.268;20.968;2023-02-02T08:55:38;4.70;99.90
17200;DHT22;8716;52.268;20.968;2023-02-02T08:58:06;4.70;99.90
17200;DHT22;8716;52.268;20.968;2023-02-02T09:00:35;4.70;99.90
17200;DHT22;8716;52.268;20.968;2023-02-02T09:03:04;4.70;99.90
17200;DHT22;8716;52.268;20.968;2023-02-02T09:05:32;4.70;99.90
17200;DHT22;8716;52.268;20.968;2023-02-02T09:08:00;4.70;99.90
17200;DHT22;8716;52.268;20.968;2023-02-02T09:10:28;4.70;99.90
17200;DHT22;8716;52.268;20.968;2023-02-02T09:12:59;4.70;99.90
17200;DHT22;8716;52.268;20.968;2023-02-02T09:15:27;4.80;99.90
17200;DHT22;8716;52.268;20.968;2023-02-02T09:17:55;4.90;99.90
17200;DHT22;8716;52.268;20.968;2023-02-02T09:20:24;4.90;99.90
17200;DHT22;8716;52.268;20.968;2023-02-02T09:22:54;5.00;99.90
17200;DHT22;8716;52.268;20.968;2023-02-02T09:25:23;5.10;99.90
17200;DHT22;8716;52.268;20.968;2023-02-02T09:27:53;5.20;99.90
17200;DHT22;8716;52.268;20.968;2023-02-02T09:30:23;5.20;99.90
17200;DHT22;8716;52.268;20.968;2023-02-02T09:32:51;5.30;99.90
17200;DHT22;8716;52.268;20.968;2023-02-02T09:35:19;5.30;99.90
17200;DHT22;8716;52.268;20.968;2023-02-02T09:37:48;5.30;99.90
17200;DHT22;8716;52.268;20.968;2023-02-02T09:40:17;5.40;99.90
17200;DHT22;8716;52.268;20.968;2023-02-02T09:43:07;5.40;99.90
17200;DHT22;8716;52.268;20.968;2023-02-02T09:45:56;5.50;99.90
17200;DHT22;8716;52.268;20.968;2023-02-02T09:48:29;5.50;99.90
17200;DHT22;8716;52.268;20.968;2023-02-02T09:51:04;5.50;99.90
17200;DHT22;8716;52.268;20.968;2023-02-02T09:53:41;5.50;99.90
17200;DHT22;8716;52.268;20.968;2023-02-02T09:56:26;5.50;99.90
17200;DHT22;8716;52.268;20.968;2023-02-02T09:58:59;5.50;99.90
17200;DHT22;8716;52.268;20.968;2023-02-02T10:01:48;5.50;99.90
17200;DHT22;8716;52.268;20.968;2023-02-02T10:04:19;5.40;99.90
17200;DHT22;8716;52.268;20.968;2023-02-02T10:06:51;5.50;99.90
17200;DHT22;8716;52.268;20.968;2023-02-02T10:09:29;5.40;99.90
17200;DHT22;8716;52.268;20.968;2023-02-02T10:12:02;5.40;99.90
17200;DHT22;8716;52.268;20.968;2023-02-02T10:14:34;5.30;99.90
17200;DHT22;8716;52.268;20.968;2023-02-02T10:17:22;5.40;99.90
17200;DHT22;8716;52.268;20.968;2023-02-02T10:19:59;5.40;99.90
17200;DHT22;8716;52.268;20.968;2023-02-02T10:22:32;5.50;99.90
17200;DHT22;8716;52.268;20.968;2023-02-02T10:25:01;5.50;99.90
17200;DHT22;8716;52.268;20.968;2023-02-02T10:27:35;5.50;99.90
17200;DHT22;8716;52.268;20.968;2023-02-02T10:30:10;5.50;99.90
17200;DHT22;8716;52.268;20.968;2023-02-02T10:32:46;5.60;99.90
17200;DHT22;8716;52.268;20.968;2023-02-02T10:35:28;5.60;99.90
17200;DHT22;8716;52.268;20.968;2023-02-02T10:38:04;5.70;99.90
17200;DHT22;8716;52.268;20.968;2023-02-02T10:40:43;5.70;99.90
17200;DHT22;8716;52.268;20.968;2023-02-02T10:43:23;5.70;99.90
17200;DHT22;8716;52.268;20.968;2023-02-02T10:46:16;5.70;99.90
17200;DHT22;8716;52.268;20.968;2023-02-02T10:48:49;5.70;99.90
17200;DHT22;8716;52.268;20.968;2023-02-02T10:51:22;5.80;99.90
17200;DHT22;8716;52.268;20.968;2023-02-02T10:53:53;5.80;99.90
17200;DHT22;8716;52.268;20.968;2023-02-02T10:56:25;5.80;99.90
17200;DHT22;8716;52.268;20.968;2023-02-02T10:59:00;5.80;99.90
17200;DHT22;8716;52.268;20.968;2023-02-02T11:01:32;5.80;99.90
17200;DHT22;8716;52.268;20.968;2023-02-02T11:04:02;5.80;99.90
17200;DHT22;8716;52.268;20.968;2023-02-02T11:06:56;5.80;99.90
17200;DHT22;8716;52.268;20.968;2023-02-02T11:09:30;5.70;99.90
17200;DHT22;8716;52.268;20.968;2023-02-02T11:12:03;5.70;99.90
17200;DHT22;8716;52.268;20.968;2023-02-02T11:14:38;5.60;99.90
17200;DHT22;8716;52.268;20.968;2023-02-02T11:17:18;5.50;99.90
17200;DHT22;8716;52.268;20.968;2023-02-02T11:19:49;5.50;99.90
17200;DHT22;8716;52.268;20.968;2023-02-02T11:22:27;5.50;99.90
17200;DHT22;8716;52.268;20.968;2023-02-02T11:25:00;5.50;99.90
17200;DHT22;8716;52.268;20.968;2023-02-02T11:27:32;5.50;99.90
17200;DHT22;8716;52.268;20.968;2023-02-02T11:30:11;5.50;99.90
17200;DHT22;8716;52.268;20.968;2023-02-02T11:32:47;5.60;99.90
17200;DHT22;8716;52.268;20.968;2023-02-02T11:35:20;5.70;99.90
17200;DHT22;8716;52.268;20.968;2023-02-02T11:37:55;5.70;99.90
17200;DHT22;8716;52.268;20.968;2023-02-02T11:40:29;5.80;99.90
17200;DHT22;8716;52.268;20.968;2023-02-02T11:43:03;5.80;99.90
17200;DHT22;8716;52.268;20.968;2023-02-02T11:45:34;5.90;99.90
17200;DHT22;8716;52.268;20.968;2023-02-02T11:48:06;6.00;99.90
17200;DHT22;8716;52.268;20.968;2023-02-02T11:50:44;6.20;99.90
17200;DHT22;8716;52.268;20.968;2023-02-02T11:53:25;6.30;99.90
17200;DHT22;8716;52.268;20.968;2023-02-02T11:55:55;6.40;99.90
17200;DHT22;8716;52.268;20.968;2023-02-02T11:58:26;6.60;99.90
17200;DHT22;8716;52.268;20.968;2023-02-02T12:00:58;6.60;99.90
17200;DHT22;8716;52.268;20.968;2023-02-02T12:03:30;6.70;99.90
17200;DHT22;8716;52.268;20.968;2023-02-02T12:06:00;6.80;99.90
17200;DHT22;8716;52.268;20.968;2023-02-02T12:08:44;6.80;99.90
17200;DHT22;8716;52.268;20.968;2023-02-02T12:11:23;6.80;99.90
17200;DHT22;8716;52.268;20.968;2023-02-02T12:14:03;6.80;99.90
17200;DHT22;8716;52.268;20.968;2023-02-02T12:16:46;6.80;99.90
17200;DHT22;8716;52.268;20.968;2023-02-02T12:19:42;6.70;99.90
17200;DHT22;8716;52.268;20.968;2023-02-02T12:25:36;6.50;99.90
17200;DHT22;8716;52.268;20.968;2023-02-02T12:28:17;6.50;99.90
17200;DHT22;8716;52.268;20.968;2023-02-02T12:30:53;6.40;99.90
17200;DHT22;8716;52.268;20.968;2023-02-02T12:33:27;6.40;99.90
17200;DHT22;8716;52.268;20.968;2023-02-02T12:36:15;6.40;99.90
17200;DHT22;8716;52.268;20.968;2023-02-02T12:42:09;6.30;99.90
17200;DHT22;8716;52.268;20.968;2023-02-02T12:47:35;6.10;99.90
17200;DHT22;8716;52.268;20.968;2023-02-02T12:50:26;6.00;99.90
17200;DHT22;8716;52.268;20.968;2023-02-02T12:53:08;5.90;99.90
17200;DHT22;8716;52.268;20.968;2023-02-02T12:55:46;5.80;99.90
17200;DHT22;8716;52.268;20.968;2023-02-02T12:58:29;5.70;99.90
17200;DHT22;8716;52.268;20.968;2023-02-02T13:01:09;5.70;99.90
17200;DHT22;8716;52.268;20.968;2023-02-02T13:03:50;5.70;99.90
17200;DHT22;8716;52.268;20.968;2023-02-02T13:06:40;5.70;99.90
17200;DHT22;8716;52.268;20.968;2023-02-02T13:09:14;5.70;99.90
17200;DHT22;8716;52.268;20.968;2023-02-02T13:11:49;5.80;99.90
17200;DHT22;8716;52.268;20.968;2023-02-02T13:14:25;5.80;99.90
17200;DHT22;8716;52.268;20.968;2023-02-02T13:16:58;5.80;99.90
17200;DHT22;8716;52.268;20.968;2023-02-02T13:19:31;5.80;99.90
17200;DHT22;8716;52.268;20.968;2023-02-02T13:22:02;5.80;99.90
17200;DHT22;8716;52.268;20.968;2023-02-02T13:24:35;5.80;99.90
17200;DHT22;8716;52.268;20.968;2023-02-02T13:27:11;5.80;99.90
17200;DHT22;8716;52.268;20.968;2023-02-02T13:29:42;5.80;99.90
17200;DHT22;8716;52.268;20.968;2023-02-02T13:32:18;5.90;99.90
17200;DHT22;8716;52.268;20.968;2023-02-02T13:34:51;5.90;99.90
17200;DHT22;8716;52.268;20.968;2023-02-02T13:37:26;5.80;99.90
17200;DHT22;8716;52.268;20.968;2023-02-02T13:39:58;5.80;99.90
17200;DHT22;8716;52.268;20.968;2023-02-02T13:42:35;5.70;99.90
17200;DHT22;8716;52.268;20.968;2023-02-02T13:45:25;5.70;99.90
17200;DHT22;8716;52.268;20.968;2023-02-02T13:48:11;5.70;99.90
17200;DHT22;8716;52.268;20.968;2023-02-02T13:50:50;5.80;99.90
17200;DHT22;8716;52.268;20.968;2023-02-02T13:53:42;5.70;99.90
17200;DHT22;8716;52.268;20.968;2023-02-02T13:56:26;5.70;99.90
17200;DHT22;8716;52.268;20.968;2023-02-02T13:59:08;5.80;99.90
17200;DHT22;8716;52.268;20.968;2023-02-02T14:01:47;5.90;99.90
17200;DHT22;8716;52.268;20.968;2023-02-02T14:04:21;5.90;99.90
17200;DHT22;8716;52.268;20.968;2023-02-02T14:06:58;6.00;99.90
17200;DHT22;8716;52.268;20.968;2023-02-02T14:09:31;6.00;99.90
17200;DHT22;8716;52.268;20.968;2023-02-02T14:12:03;6.00;99.90
17200;DHT22;8716;52.268;20.968;2023-02-02T14:14:34;6.00;99.90
17200;DHT22;8716;52.268;20.968;2023-02-02T14:17:49;6.10;99.90
17200;DHT22;8716;52.268;20.968;2023-02-02T14:20:40;6.00;99.90
17200;DHT22;8716;52.268;20.968;2023-02-02T14:26:19;6.00;99.90
17200;DHT22;8716;52.268;20.968;2023-02-02T14:29:34;6.00;99.90
17200;DHT22;8716;52.268;20.968;2023-02-02T14:32:30;6.00;99.90
17200;DHT22;8716;52.268;20.968;2023-02-02T14:38:09;5.90;99.90
17200;DHT22;8716;52.268;20.968;2023-02-02T14:40:47;5.80;99.90
17200;DHT22;8716;52.268;20.968;2023-02-02T14:43:26;5.80;99.90
17200;DHT22;8716;52.268;20.968;2023-02-02T14:46:39;5.80;99.90
17200;DHT22;8716;52.268;20.968;2023-02-02T14:49:26;5.80;99.90
17200;DHT22;8716;52.268;20.968;2023-02-02T14:51:59;5.90;99.90
17200;DHT22;8716;52.268;20.968;2023-02-02T14:54:34;5.80;99.90
17200;DHT22;8716;52.268;20.968;2023-02-02T14:57:18;5.80;99.90
17200;DHT22;8716;52.268;20.968;2023-02-02T14:59:48;5.80;99.90
17200;DHT22;8716;52.268;20.968;2023-02-02T15:02:22;5.70;99.90
17200;DHT22;8716;52.268;20.968;2023-02-02T15:08:21;5.60;99.90
17200;DHT22;8716;52.268;20.968;2023-02-02T15:11:08;5.60;99.90
17200;DHT22;8716;52.268;20.968;2023-02-02T15:14:14;5.60;99.90
17200;DHT22;8716;52.268;20.968;2023-02-02T15:16:44;5.50;99.90
17200;DHT22;8716;52.268;20.968;2023-02-02T15:19:23;5.50;99.90
17200;DHT22;8716;52.268;20.968;2023-02-02T15:21:56;5.50;99.90
17200;DHT22;8716;52.268;20.968;2023-02-02T15:24:29;5.40;99.90
17200;DHT22;8716;52.268;20.968;2023-02-02T15:26:59;5.40;99.90
17200;DHT22;8716;52.268;20.968;2023-02-02T15:29:36;5.40;99.90
17200;DHT22;8716;52.268;20.968;2023-02-02T15:32:13;5.20;99.90
17200;DHT22;8716;52.268;20.968;2023-02-02T15:34:44;5.10;99.90
17200;DHT22;8716;52.268;20.968;2023-02-02T15:37:17;5.00;99.90
17200;DHT22;8716;52.268;20.968;2023-02-02T15:39:51;4.90;99.90
17200;DHT22;8716;52.268;20.968;2023-02-02T15:42:33;4.80;99.90
17200;DHT22;8716;52.268;20.968;2023-02-02T15:45:49;4.80;99.90
17200;DHT22;8716;52.268;20.968;2023-02-02T15:48:22;4.70;99.90
17200;DHT22;8716;52.268;20.968;2023-02-02T15:50:52;4.60;99.90
17200;DHT22;8716;52.268;20.968;2023-02-02T15:53:24;4.60;99.90
17200;DHT22;8716;52.268;20.968;2023-02-02T15:55:55;4.50;99.90
17200;DHT22;8716;52.268;20.968;2023-02-02T15:58:29;4.40;99.90
17200;DHT22;8716;52.268;20.968;2023-02-02T16:01:01;4.40;99.90
17200;DHT22;8716;52.268;20.968;2023-02-02T16:03:34;4.40;99.90
17200;DHT22;8716;52.268;20.968;2023-02-02T16:06:05;4.40;99.90
17200;DHT22;8716;52.268;20.968;2023-02-02T16:08:36;4.30;99.90
17200;DHT22;8716;52.268;20.968;2023-02-02T16:11:09;4.30;99.90
17200;DHT22;8716;52.268;20.968;2023-02-02T16:13:41;4.20;99.90
17200;DHT22;8716;52.268;20.968;2023-02-02T16:16:22;4.20;99.90
17200;DHT22;8716;52.268;20.968;2023-02-02T16:19:17;4.20;99.90
17200;DHT22;8716;52.268;20.968;2023-02-02T16:21:49;4.20;99.90
17200;DHT22;8716;52.268;20.968;2023-02-02T16:24:21;4.10;99.90
17200;DHT22;8716;52.268;20.968;2023-02-02T16:26:54;4.10;99.90
17200;DHT22;8716;52.268;20.968;2023-02-02T16:29:24;4.10;99.90
17200;DHT22;8716;52.268;20.968;2023-02-02T16:31:55;4.10;99.90
17200;DHT22;8716;52.268;20.968;2023-02-02T16:34:42;4.10;99.90
17200;DHT22;8716;52.268;20.968;2023-02-02T16:37:14;4.20;99.90
17200;DHT22;8716;52.268;20.968;2023-02-02T16:39:43;4.10;99.90
17200;DHT22;8716;52.268;20.968;2023-02-02T16:42:23;4.10;99.90
17200;DHT22;8716;52.268;20.968;2023-02-02T16:44:52;4.10;99.90
17200;DHT22;8716;52.268;20.968;2023-02-02T16:47:35;4.10;99.90